Metar z połowy godziny Komunikat METAR ze strony awiacja.imgw.pl Metar G00 EPSY METAR EPSY 271430Z 26004KT 9999 FEW009 BKN012 01/01 Q0994=